Terminal Aerodrome Forecast
Issued by NWS

Home | Current Version | Previous Version | Text Only | Print | Product List | Glossary On
Versions: 1 2 3 4 5 6 7 8 9 10 11 12 13 14
942
FTUS45 KFGZ 090529
TAFSEZ
TAF
KSEZ 090529Z 0906/1006 04010G15KT P6SM SKC
     FM091600 09008KT P6SM SKC
     FM100100 05011G17KT P6SM SKC=

USA.gov is the U.S. government's official web portal to all federal, state and local government web resources and services.